Time;durP1;ratioP1;P1;durP2;ratioP2;P2;SDS_P1;SDS_P2;PMS_P1;PMS_P2;Temp;Humidity;BMP_temperature;BMP_pressure;BME280_temperature;BME280_humidity;BME280_pressure;Samples;Min_cycle;Max_cycle;Signal;HPM_P1;HPM_P2
2023/08/16 00:02:11;;;;;;;2.05;1.30;;;20.00;99.90;;;;;;5090926;28;20032;-84
2023/08/16 00:04:37;;;;;;;4.30;1.60;;;20.00;99.90;;;;;;5074268;28;20115;-85
2023/08/16 00:07:03;;;;;;;4.70;1.70;;;20.00;99.90;;;;;;5057011;28;20444;-85
2023/08/16 00:09:29;;;;;;;2.85;1.80;;;20.00;99.90;;;;;;5092122;28;20044;-85
2023/08/16 00:11:54;;;;;;;4.03;1.63;;;20.00;99.90;;;;;;5074988;28;20123;-84
2023/08/16 00:14:20;;;;;;;3.63;1.80;;;19.90;99.90;;;;;;5056278;28;20074;-85
2023/08/16 00:16:46;;;;;;;4.10;1.70;;;19.90;99.90;;;;;;5067706;28;20061;-85
2023/08/16 00:19:11;;;;;;;3.40;1.60;;;19.90;99.90;;;;;;5069909;28;20025;-85
2023/08/16 00:21:37;;;;;;;3.90;1.60;;;19.90;99.90;;;;;;5070204;28;20461;-85
2023/08/16 00:24:04;;;;;;;2.83;1.58;;;19.80;99.90;;;;;;5091241;28;20364;-85
2023/08/16 00:26:30;;;;;;;4.97;1.80;;;19.80;99.90;;;;;;5073723;28;20025;-84
2023/08/16 00:28:56;;;;;;;2.97;1.40;;;19.70;99.90;;;;;;5073328;28;20110;-85
2023/08/16 00:31:22;;;;;;;2.72;1.40;;;19.80;99.90;;;;;;5074453;28;20020;-85
2023/08/16 00:33:48;;;;;;;2.03;1.50;;;19.80;99.90;;;;;;5072492;28;20027;-84
2023/08/16 00:36:14;;;;;;;4.55;2.17;;;19.70;99.90;;;;;;5058742;28;20028;-84
2023/08/16 00:38:44;;;;;;;7.18;1.90;;;19.70;99.90;;;;;;5066711;28;20476;-85
2023/08/16 00:41:11;;;;;;;2.88;1.85;;;19.70;99.90;;;;;;5069078;28;20029;-84
2023/08/16 00:43:37;;;;;;;2.22;1.67;;;19.70;99.90;;;;;;5069329;28;20360;-84
2023/08/16 00:46:04;;;;;;;2.28;1.60;;;19.70;99.90;;;;;;5104089;28;20036;-85
2023/08/16 00:48:32;;;;;;;2.90;1.70;;;19.70;99.90;;;;;;5074409;28;20027;-85
2023/08/16 00:50:59;;;;;;;3.72;1.50;;;19.70;99.90;;;;;;5088164;28;20016;-85
2023/08/16 00:53:27;;;;;;;2.08;1.50;;;19.70;99.90;;;;;;5088948;28;20024;-84
2023/08/16 00:55:52;;;;;;;2.97;1.38;;;19.70;99.90;;;;;;5074343;28;20455;-84
2023/08/16 00:58:18;;;;;;;2.47;1.23;;;19.70;99.90;;;;;;5072357;28;20025;-84
2023/08/16 01:00:44;;;;;;;2.58;1.30;;;19.70;99.90;;;;;;5062477;28;20029;-84
2023/08/16 01:03:10;;;;;;;2.17;1.45;;;19.70;99.90;;;;;;5072262;28;20029;-85
2023/08/16 01:05:36;;;;;;;1.55;1.30;;;19.70;99.90;;;;;;5099273;28;20025;-84
2023/08/16 01:08:02;;;;;;;1.48;1.27;;;19.70;99.90;;;;;;5056122;28;20446;-85
2023/08/16 01:10:52;;;;;;;3.20;1.60;;;19.70;99.90;;;;;;5056237;28;20383;-85
2023/08/16 01:13:36;;;;;;;2.17;1.50;;;19.70;99.90;;;;;;5073083;28;20020;-84
2023/08/16 01:16:07;;;;;;;2.20;1.52;;;19.70;99.90;;;;;;5054383;28;20028;-84
2023/08/16 01:18:34;;;;;;;;;;;19.70;99.90;;;;;;5088071;28;20056;-84
2023/08/16 01:21:00;;;;;;;2.17;1.63;;;19.70;99.90;;;;;;5094635;28;19904;-84
2023/08/16 01:23:33;;;;;;;3.08;1.35;;;19.70;99.90;;;;;;5077163;28;20078;-84
2023/08/16 01:26:21;;;;;;;1.30;1.20;;;19.70;99.90;;;;;;5103902;28;20005;-83
2023/08/16 01:28:48;;;;;;;3.22;1.55;;;19.70;99.90;;;;;;5117907;28;20018;-84
2023/08/16 01:31:15;;;;;;;2.10;1.40;;;19.70;99.90;;;;;;5098998;28;20008;-84
2023/08/16 01:33:40;;;;;;;3.30;1.45;;;19.70;99.90;;;;;;5116567;28;20088;-84
2023/08/16 01:36:06;;;;;;;2.75;1.77;;;19.70;99.90;;;;;;5107263;28;20030;-85
2023/08/16 01:38:32;;;;;;;4.30;1.50;;;19.70;99.90;;;;;;5076857;28;20470;-85
2023/08/16 01:41:01;;;;;;;2.42;1.40;;;19.70;99.90;;;;;;5072459;28;20029;-83
2023/08/16 01:43:28;;;;;;;3.78;1.75;;;19.80;99.90;;;;;;5072793;28;20028;-84
2023/08/16 01:45:56;;;;;;;2.65;1.52;;;19.70;99.90;;;;;;5088131;28;20394;-85
2023/08/16 01:48:23;;;;;;;3.80;1.73;;;19.70;99.90;;;;;;5092479;28;20032;-85
2023/08/16 01:50:49;;;;;;;3.95;1.52;;;19.70;99.90;;;;;;5092336;28;20024;-84
2023/08/16 01:53:15;;;;;;;3.10;1.77;;;19.70;99.90;;;;;;5074925;28;20040;-84
2023/08/16 01:55:41;;;;;;;1.90;1.60;;;19.70;99.90;;;;;;5086712;28;20089;-85
2023/08/16 01:58:07;;;;;;;4.40;1.70;;;19.70;99.90;;;;;;5074504;28;20166;-84
2023/08/16 02:00:32;;;;;;;2.58;1.67;;;19.70;99.90;;;;;;5090270;28;20029;-84
2023/08/16 02:03:07;;;;;;;4.38;1.80;;;19.70;99.90;;;;;;5073290;28;20028;-84
2023/08/16 02:05:33;;;;;;;2.50;1.70;;;19.70;99.90;;;;;;5072071;28;20035;-84
2023/08/16 02:08:01;;;;;;;3.58;1.70;;;19.70;99.90;;;;;;5088523;28;20452;-85
2023/08/16 02:10:27;;;;;;;2.65;1.52;;;19.80;99.90;;;;;;5119526;28;20067;-84
2023/08/16 02:12:52;;;;;;;3.22;1.65;;;19.70;99.90;;;;;;5070826;28;20052;-85
2023/08/16 02:15:18;;;;;;;2.05;1.60;;;19.70;99.90;;;;;;5070770;28;20028;-85
2023/08/16 02:17:44;;;;;;;2.78;1.50;;;19.80;99.90;;;;;;5054722;28;20391;-85
2023/08/16 02:20:10;;;;;;;3.83;1.55;;;19.80;99.90;;;;;;5105241;28;20540;-84
2023/08/16 02:22:35;;;;;;;2.85;1.50;;;19.80;99.90;;;;;;5053872;28;20451;-84
2023/08/16 02:25:01;;;;;;;3.05;1.33;;;19.80;99.90;;;;;;5084169;28;20028;-84
2023/08/16 02:27:27;;;;;;;3.33;1.83;;;19.80;99.90;;;;;;5050710;28;20021;-84
2023/08/16 02:29:52;;;;;;;2.08;1.33;;;19.70;99.90;;;;;;5101673;28;20091;-83
2023/08/16 02:32:18;;;;;;;3.55;1.50;;;19.80;99.90;;;;;;5084129;28;20428;-84
2023/08/16 02:34:44;;;;;;;1.80;1.20;;;19.80;99.90;;;;;;5082516;28;20383;-84
2023/08/16 02:37:10;;;;;;;4.60;1.73;;;19.80;99.90;;;;;;5061797;28;20380;-84
2023/08/16 02:39:35;;;;;;;2.08;1.27;;;19.70;99.90;;;;;;5083316;28;20024;-84
2023/08/16 02:42:01;;;;;;;4.03;1.50;;;19.80;99.90;;;;;;5092883;28;20024;-84
2023/08/16 02:44:27;;;;;;;2.65;1.70;;;19.70;99.90;;;;;;5086988;28;20020;-84
2023/08/16 02:46:53;;;;;;;3.60;1.70;;;19.80;99.90;;;;;;5055802;28;20507;-84
2023/08/16 02:49:18;;;;;;;3.05;1.40;;;19.80;99.90;;;;;;5054897;28;20063;-84
2023/08/16 02:51:44;;;;;;;3.92;1.70;;;19.70;99.90;;;;;;5072151;28;20129;-84
2023/08/16 02:54:10;;;;;;;3.03;1.50;;;19.70;99.90;;;;;;5089428;28;20017;-84
2023/08/16 02:56:35;;;;;;;3.42;1.60;;;19.80;99.90;;;;;;5075956;28;20023;-85
2023/08/16 02:59:01;;;;;;;3.08;1.42;;;19.70;99.90;;;;;;5095760;28;20020;-84
2023/08/16 03:01:26;;;;;;;4.30;1.70;;;19.70;99.90;;;;;;5095428;28;20195;-85
2023/08/16 03:03:52;;;;;;;2.20;1.40;;;19.70;99.90;;;;;;5078770;28;20016;-84
2023/08/16 03:06:18;;;;;;;2.33;1.33;;;19.70;99.90;;;;;;5061555;28;20054;-83
2023/08/16 03:08:43;;;;;;;3.22;1.90;;;19.70;99.90;;;;;;5091672;28;20464;-84
2023/08/16 03:11:11;;;;;;;2.47;1.38;;;19.70;99.90;;;;;;5076432;28;20449;-85
2023/08/16 03:13:36;;;;;;;2.58;1.27;;;19.70;99.90;;;;;;5059319;28;20028;-84
2023/08/16 03:16:02;;;;;;;4.22;1.80;;;19.70;99.90;;;;;;5059438;28;20017;-84
2023/08/16 03:18:28;;;;;;;3.55;1.80;;;19.70;99.90;;;;;;5079922;28;20029;-84
2023/08/16 03:20:54;;;;;;;2.85;1.63;;;19.70;99.90;;;;;;5090902;28;20020;-85
2023/08/16 03:23:19;;;;;;;3.53;1.48;;;19.60;99.90;;;;;;5081762;28;20072;-84
2023/08/16 03:25:45;;;;;;;2.35;1.40;;;19.60;99.90;;;;;;5082087;28;20033;-84
2023/08/16 03:28:11;;;;;;;3.08;1.75;;;19.60;99.90;;;;;;5115563;28;20055;-85
2023/08/16 03:30:36;;;;;;;4.53;1.58;;;19.60;99.90;;;;;;5112257;28;20467;-84
2023/08/16 03:33:02;;;;;;;2.78;1.70;;;19.60;99.90;;;;;;5078908;28;20450;-84
2023/08/16 03:35:28;;;;;;;2.58;1.60;;;19.60;99.90;;;;;;5104397;28;20024;-84
2023/08/16 03:37:53;;;;;;;2.05;1.73;;;19.60;99.90;;;;;;5048450;28;20451;-84
2023/08/16 03:40:19;;;;;;;2.40;1.40;;;19.60;99.90;;;;;;5081723;28;20059;-84
2023/08/16 03:42:44;;;;;;;4.05;1.90;;;19.50;99.90;;;;;;5057481;28;20020;-84
2023/08/16 03:45:10;;;;;;;3.15;2.00;;;19.50;99.90;;;;;;5108415;28;20067;-84
2023/08/16 03:47:36;;;;;;;4.15;1.90;;;19.60;99.90;;;;;;5075486;28;20016;-84
2023/08/16 03:50:04;;;;;;;5.10;1.80;;;19.50;99.90;;;;;;5057652;28;20059;-84
2023/08/16 03:52:30;;;;;;;3.90;1.73;;;19.50;99.90;;;;;;5057297;28;20035;-84
2023/08/16 03:54:56;;;;;;;4.13;1.95;;;19.60;99.90;;;;;;5057063;28;20107;-84
2023/08/16 03:57:22;;;;;;;3.50;1.90;;;19.50;99.90;;;;;;5053233;28;20111;-84
2023/08/16 03:59:51;;;;;;;2.58;1.80;;;19.60;99.90;;;;;;5089304;28;20202;-84
2023/08/16 04:02:18;;;;;;;3.75;2.00;;;19.60;99.90;;;;;;5073801;28;20093;-84
2023/08/16 04:04:43;;;;;;;3.17;1.80;;;19.50;99.90;;;;;;5074051;28;20025;-84
2023/08/16 04:07:09;;;;;;;3.13;1.80;;;19.50;99.90;;;;;;5055018;28;20038;-84
2023/08/16 04:09:35;;;;;;;3.15;1.80;;;19.50;99.90;;;;;;5072462;28;20126;-84
2023/08/16 04:12:00;;;;;;;3.50;1.77;;;19.50;99.90;;;;;;5126528;27;20501;-83
2023/08/16 04:14:26;;;;;;;3.08;1.60;;;19.50;99.90;;;;;;5076972;28;20099;-84
2023/08/16 04:16:52;;;;;;;3.42;1.90;;;19.50;99.90;;;;;;5056923;28;20052;-84
2023/08/16 04:19:17;;;;;;;3.50;1.63;;;19.50;99.90;;;;;;5092109;28;20024;-84
2023/08/16 04:21:43;;;;;;;4.55;2.08;;;19.50;99.90;;;;;;5074190;28;20028;-84
2023/08/16 04:24:08;;;;;;;5.10;2.03;;;19.50;99.90;;;;;;5073599;28;20028;-84
2023/08/16 04:26:34;;;;;;;3.17;1.92;;;19.50;99.90;;;;;;5082240;28;20470;-84
2023/08/16 04:29:00;;;;;;;3.60;2.08;;;19.50;99.90;;;;;;5080097;28;20052;-84
2023/08/16 04:31:25;;;;;;;3.75;1.90;;;19.50;99.90;;;;;;5070137;28;20035;-84
2023/08/16 04:33:51;;;;;;;2.63;1.90;;;19.40;99.90;;;;;;5074768;28;20032;-84
2023/08/16 04:36:17;;;;;;;3.58;2.00;;;19.40;99.90;;;;;;5073314;28;20036;-84
2023/08/16 04:38:43;;;;;;;4.38;2.17;;;19.40;99.90;;;;;;5088716;28;20399;-84
2023/08/16 04:41:08;;;;;;;2.45;1.70;;;19.40;99.90;;;;;;5056926;28;20402;-84
2023/08/16 04:43:34;;;;;;;4.28;2.10;;;19.40;99.90;;;;;;5085627;28;20063;-84
2023/08/16 04:46:00;;;;;;;4.65;2.15;;;19.40;99.90;;;;;;5076924;28;20025;-83
2023/08/16 04:48:26;;;;;;;3.80;2.20;;;19.40;99.90;;;;;;5091902;28;20027;-84
2023/08/16 04:50:51;;;;;;;3.75;2.47;;;19.40;99.90;;;;;;5053522;28;20361;-83
2023/08/16 04:53:19;;;;;;;4.53;2.45;;;19.30;99.90;;;;;;5061463;28;20020;-82
2023/08/16 04:55:45;;;;;;;5.97;2.33;;;19.40;99.90;;;;;;5072981;28;20025;-83
2023/08/16 04:58:11;;;;;;;3.90;2.10;;;19.30;99.90;;;;;;5076317;28;20430;-83
2023/08/16 05:00:37;;;;;;;3.55;2.03;;;19.30;99.90;;;;;;5063535;28;20083;-83
2023/08/16 05:03:03;;;;;;;3.55;1.92;;;19.30;99.90;;;;;;5063123;28;20024;-83
2023/08/16 05:05:29;;;;;;;5.63;2.33;;;19.30;99.90;;;;;;5073600;28;20361;-83
2023/08/16 05:07:54;;;;;;;5.93;2.75;;;19.30;99.90;;;;;;5098807;28;20032;-83
2023/08/16 05:10:23;;;;;;;4.43;2.75;;;19.30;99.90;;;;;;5059503;28;20049;-83
2023/08/16 05:12:48;;;;;;;6.72;2.55;;;19.30;99.90;;;;;;5090399;28;20027;-83
2023/08/16 05:15:14;;;;;;;5.15;2.63;;;19.30;99.90;;;;;;5076830;28;20032;-83
2023/08/16 05:17:40;;;;;;;6.00;2.92;;;19.30;99.90;;;;;;5129451;28;20036;-83
2023/08/16 05:20:06;;;;;;;5.20;3.40;;;19.30;99.90;;;;;;5095473;28;20034;-83
2023/08/16 05:22:32;;;;;;;6.53;3.63;;;19.30;99.90;;;;;;5127989;28;20058;-83
2023/08/16 05:24:58;;;;;;;5.88;3.70;;;19.30;99.90;;;;;;5097327;28;20027;-81
2023/08/16 05:27:24;;;;;;;7.95;3.70;;;19.30;99.90;;;;;;5103803;28;20491;-82
2023/08/16 05:29:49;;;;;;;8.80;3.85;;;19.20;99.90;;;;;;5075739;28;20044;-84
2023/08/16 05:32:15;;;;;;;6.85;3.35;;;19.30;99.90;;;;;;5123559;28;20056;-83
2023/08/16 05:34:41;;;;;;;6.18;3.33;;;19.30;99.90;;;;;;5076276;28;20020;-85
2023/08/16 05:37:06;;;;;;;6.50;4.15;;;19.30;99.90;;;;;;5075881;28;20408;-84
2023/08/16 05:39:32;;;;;;;5.47;3.60;;;19.20;99.90;;;;;;5092778;28;20057;-84
2023/08/16 05:41:58;;;;;;;8.65;3.35;;;19.30;99.90;;;;;;5092979;28;20012;-85
2023/08/16 05:44:23;;;;;;;7.25;3.55;;;19.20;99.90;;;;;;5075072;28;20024;-85
2023/08/16 05:46:49;;;;;;;7.95;3.60;;;19.20;99.90;;;;;;5052129;28;20040;-84
2023/08/16 05:49:14;;;;;;;5.97;3.33;;;19.20;99.90;;;;;;5072418;28;20051;-84
2023/08/16 05:51:40;;;;;;;5.10;2.97;;;19.20;99.90;;;;;;5069291;28;20021;-84
2023/08/16 05:54:06;;;;;;;6.07;3.15;;;19.20;99.90;;;;;;5076306;28;20020;-84
2023/08/16 05:56:32;;;;;;;7.68;3.20;;;19.30;99.90;;;;;;5055110;28;20165;-84
2023/08/16 05:58:57;;;;;;;5.75;3.60;;;19.30;99.90;;;;;;5055354;28;20445;-84
2023/08/16 06:01:23;;;;;;;6.78;3.20;;;19.30;99.90;;;;;;5054953;28;20043;-84
2023/08/16 06:03:49;;;;;;;9.00;3.83;;;19.30;99.90;;;;;;5055315;28;20035;-84
2023/08/16 06:06:14;;;;;;;6.18;3.30;;;19.40;99.90;;;;;;5092393;28;20058;-84
2023/08/16 06:08:40;;;;;;;8.30;3.50;;;19.40;99.90;;;;;;5075179;28;20077;-84
2023/08/16 06:11:08;;;;;;;6.32;3.60;;;19.50;99.90;;;;;;5092093;28;20044;-85
2023/08/16 06:13:34;;;;;;;6.97;3.60;;;19.50;99.90;;;;;;5084745;28;20025;-86
2023/08/16 06:15:59;;;;;;;6.13;3.10;;;19.50;99.90;;;;;;5102028;28;20036;-86
2023/08/16 06:18:25;;;;;;;4.32;2.47;;;19.50;99.90;;;;;;5068250;28;20086;-86
2023/08/16 06:20:51;;;;;;;3.83;2.78;;;19.50;99.90;;;;;;5027419;28;20029;-85
2023/08/16 06:23:16;;;;;;;6.55;2.97;;;19.60;99.90;;;;;;5079363;28;20058;-85
2023/08/16 06:25:42;;;;;;;6.22;2.78;;;19.50;99.90;;;;;;5096170;28;20031;-85
2023/08/16 06:28:08;;;;;;;6.53;3.22;;;19.50;99.90;;;;;;5068605;28;20043;-85
2023/08/16 06:30:33;;;;;;;5.28;2.85;;;19.60;99.90;;;;;;5109242;28;20016;-85
2023/08/16 06:32:59;;;;;;;5.93;2.40;;;19.60;99.90;;;;;;5075994;28;20027;-85
2023/08/16 06:35:25;;;;;;;4.95;2.80;;;19.60;99.90;;;;;;5074440;28;20037;-85
2023/08/16 06:37:50;;;;;;;6.07;2.50;;;19.70;99.90;;;;;;5075306;28;20024;-85
2023/08/16 06:40:16;;;;;;;2.72;2.40;;;19.70;99.90;;;;;;5092528;28;20424;-84
2023/08/16 06:42:42;;;;;;;4.20;2.50;;;19.80;99.90;;;;;;5109408;28;20098;-85
2023/08/16 06:45:09;;;;;;;7.53;3.05;;;19.80;99.90;;;;;;5084704;28;20016;-84
2023/08/16 06:47:34;;;;;;;3.60;2.30;;;19.80;99.90;;;;;;5095670;28;20016;-85
2023/08/16 06:50:00;;;;;;;7.30;2.83;;;19.90;99.90;;;;;;5097322;28;20028;-85
2023/08/16 06:52:26;;;;;;;4.68;2.30;;;19.90;99.90;;;;;;5095599;28;20024;-85
2023/08/16 06:54:51;;;;;;;5.20;2.25;;;19.90;99.90;;;;;;5095745;28;20363;-85
2023/08/16 06:57:17;;;;;;;4.65;2.10;;;20.00;99.90;;;;;;5069990;28;20124;-84
2023/08/16 06:59:44;;;;;;;6.97;2.05;;;20.00;99.90;;;;;;5075086;28;20143;-85
2023/08/16 07:02:14;;;;;;;4.07;1.95;;;20.00;99.90;;;;;;5055656;28;20024;-85
2023/08/16 07:04:43;;;;;;;3.17;2.00;;;20.10;99.90;;;;;;5093304;28;20013;-85
2023/08/16 07:07:10;;;;;;;3.95;2.38;;;20.10;99.90;;;;;;5113461;28;20039;-85
2023/08/16 07:09:35;;;;;;;5.22;2.55;;;20.20;99.90;;;;;;5110506;28;20108;-84
2023/08/16 07:12:01;;;;;;;5.07;2.50;;;20.20;99.90;;;;;;5098729;28;20024;-85
2023/08/16 07:14:27;;;;;;;5.28;2.25;;;20.20;99.90;;;;;;5119018;28;20009;-84
2023/08/16 07:16:53;;;;;;;4.03;2.13;;;20.20;99.90;;;;;;5120358;28;20060;-85
2023/08/16 07:19:18;;;;;;;4.00;1.90;;;20.30;99.90;;;;;;5101811;28;20028;-85
2023/08/16 07:21:44;;;;;;;3.35;1.80;;;20.40;99.90;;;;;;5088210;28;20448;-85
2023/08/16 07:24:10;;;;;;;4.60;2.15;;;20.50;99.90;;;;;;5110896;28;20488;-85
2023/08/16 07:26:37;;;;;;;3.75;2.10;;;20.50;99.90;;;;;;5101565;28;20035;-85
2023/08/16 07:29:02;;;;;;;5.22;2.08;;;20.50;99.90;;;;;;5091638;28;20338;-84
2023/08/16 07:31:28;;;;;;;3.40;1.92;;;20.60;99.90;;;;;;5092289;28;20038;-85
2023/08/16 07:33:54;;;;;;;5.75;2.00;;;20.60;99.90;;;;;;5074762;28;20924;-85
2023/08/16 07:36:19;;;;;;;4.20;2.35;;;20.60;99.90;;;;;;5090452;28;20016;-85
2023/08/16 07:38:47;;;;;;;4.07;2.20;;;20.60;99.90;;;;;;5094540;28;20036;-84
2023/08/16 07:41:13;;;;;;;4.50;1.83;;;20.50;99.90;;;;;;5094422;28;20122;-84
2023/08/16 07:43:38;;;;;;;4.47;1.98;;;20.60;99.90;;;;;;5094369;28;20056;-84
2023/08/16 07:46:04;;;;;;;4.20;2.05;;;20.60;99.90;;;;;;5077846;28;20021;-84
2023/08/16 07:48:30;;;;;;;4.28;1.92;;;20.60;99.90;;;;;;5077623;28;20024;-84
2023/08/16 07:50:56;;;;;;;3.88;2.08;;;20.60;99.90;;;;;;5094063;28;20024;-85
2023/08/16 07:53:22;;;;;;;5.57;2.30;;;20.70;99.90;;;;;;5077372;28;20107;-84
2023/08/16 07:55:48;;;;;;;5.35;2.50;;;20.70;99.90;;;;;;5079561;28;20460;-84
2023/08/16 07:58:15;;;;;;;5.70;2.35;;;20.70;99.90;;;;;;5103642;28;20074;-84
2023/08/16 08:00:42;;;;;;;2.90;2.10;;;20.70;99.90;;;;;;5090395;28;20035;-84
2023/08/16 08:03:09;;;;;;;3.00;1.95;;;20.70;99.90;;;;;;5054832;28;20052;-84
2023/08/16 08:05:35;;;;;;;3.65;1.80;;;20.80;99.90;;;;;;5062131;28;20148;-84
2023/08/16 08:08:01;;;;;;;5.38;2.00;;;20.80;99.90;;;;;;5094827;28;20024;-85
2023/08/16 08:10:29;;;;;;;5.60;2.30;;;20.90;99.90;;;;;;5093894;28;20047;-85
2023/08/16 08:12:55;;;;;;;4.00;1.92;;;20.90;99.90;;;;;;5074758;28;20020;-84
2023/08/16 08:15:23;;;;;;;3.90;1.75;;;20.90;99.90;;;;;;5056680;28;20030;-84
2023/08/16 08:17:48;;;;;;;4.20;1.98;;;21.00;99.90;;;;;;5079359;28;20024;-82
2023/08/16 08:20:14;;;;;;;3.78;1.83;;;21.00;99.90;;;;;;5046813;28;20033;-85
2023/08/16 08:22:41;;;;;;;5.25;2.05;;;21.00;99.90;;;;;;5070865;28;20429;-84
2023/08/16 08:25:08;;;;;;;3.38;1.77;;;21.00;99.90;;;;;;5074333;28;20020;-85
2023/08/16 08:27:33;;;;;;;3.65;1.80;;;21.10;99.90;;;;;;5073058;28;20051;-84
2023/08/16 08:29:59;;;;;;;3.92;1.75;;;21.10;99.90;;;;;;5105141;28;20476;-84
2023/08/16 08:32:25;;;;;;;5.90;1.85;;;21.10;99.90;;;;;;5096016;28;20029;-84
2023/08/16 08:34:51;;;;;;;3.95;2.00;;;21.20;99.90;;;;;;5085055;28;20036;-85
2023/08/16 08:37:16;;;;;;;9.70;2.88;;;21.20;99.90;;;;;;5075400;28;20027;-84
2023/08/16 08:39:42;;;;;;;3.13;1.80;;;21.20;99.90;;;;;;5073131;28;20468;-82
2023/08/16 08:42:09;;;;;;;3.38;1.85;;;21.20;99.90;;;;;;5058880;28;20108;-84
2023/08/16 08:44:38;;;;;;;5.78;2.00;;;21.20;99.90;;;;;;5071737;28;20032;-85
2023/08/16 08:47:06;;;;;;;4.78;1.90;;;21.30;99.90;;;;;;5083696;28;20051;-84
2023/08/16 08:49:36;;;;;;;3.13;1.73;;;21.40;99.90;;;;;;5077022;28;20399;-84
2023/08/16 08:52:05;;;;;;;3.08;1.90;;;21.40;99.90;;;;;;5106191;27;20028;-85
2023/08/16 08:54:34;;;;;;;5.85;2.20;;;21.50;99.90;;;;;;5074711;28;20455;-84
2023/08/16 08:57:00;;;;;;;4.65;2.30;;;21.50;99.90;;;;;;5072033;28;20035;-85
2023/08/16 08:59:33;;;;;;;5.90;2.22;;;21.60;99.90;;;;;;5070044;28;20507;-86
2023/08/16 09:01:59;;;;;;;4.43;2.60;;;21.70;99.90;;;;;;5072310;28;20022;-85
2023/08/16 09:04:25;;;;;;;4.22;2.17;;;21.60;99.90;;;;;;5073933;28;20463;-86
2023/08/16 09:06:53;;;;;;;4.47;2.17;;;21.60;99.90;;;;;;5091297;28;20471;-84
2023/08/16 09:09:22;;;;;;;3.47;2.25;;;21.70;99.90;;;;;;5098497;28;20074;-85
2023/08/16 09:11:48;;;;;;;5.30;2.67;;;21.70;99.90;;;;;;5099253;28;20036;-85
2023/08/16 09:14:14;;;;;;;7.63;3.28;;;21.70;99.90;;;;;;5110023;28;20025;-85
2023/08/16 09:16:40;;;;;;;5.75;2.70;;;21.70;99.90;;;;;;5089764;28;20051;-84
2023/08/16 09:19:13;;;;;;;4.80;2.47;;;21.70;99.90;;;;;;5084092;28;20090;-84
2023/08/16 09:21:41;;;;;;;5.43;2.45;;;21.70;99.90;;;;;;5061968;28;20095;-84
2023/08/16 09:24:06;;;;;;;4.88;2.63;;;21.80;99.90;;;;;;5059827;28;20024;-85
2023/08/16 09:26:32;;;;;;;6.95;2.80;;;21.80;99.90;;;;;;5053673;28;20031;-86
2023/08/16 09:28:59;;;;;;;5.47;2.55;;;21.80;99.90;;;;;;5056723;28;20472;-85
2023/08/16 09:31:31;;;;;;;4.00;2.33;;;21.90;99.90;;;;;;5074442;28;20032;-85
2023/08/16 09:34:01;;;;;;;5.88;2.50;;;22.00;99.90;;;;;;5072759;28;20020;-84
2023/08/16 09:36:30;;;;;;;4.43;2.30;;;22.00;99.90;;;;;;5073727;28;20028;-85
2023/08/16 09:39:00;;;;;;;3.13;2.10;;;22.00;99.90;;;;;;5075626;28;20379;-85
2023/08/16 09:41:27;;;;;;;;;;;22.10;99.90;;;;;;5092888;28;20020;-85
2023/08/16 09:44:00;;;;;;;4.28;1.98;;;22.00;99.90;;;;;;5092540;28;19907;-86
2023/08/16 09:46:26;;;;;;;4.50;2.20;;;22.10;99.90;;;;;;5071772;28;20029;-85
2023/08/16 09:48:52;;;;;;;2.35;1.52;;;22.10;99.90;;;;;;5053722;28;20041;-85
2023/08/16 09:51:18;;;;;;;3.25;1.92;;;22.20;99.90;;;;;;5074811;28;20079;-86
2023/08/16 09:53:47;;;;;;;3.67;1.65;;;22.20;99.90;;;;;;5110655;28;20020;-85
2023/08/16 09:56:14;;;;;;;4.63;1.83;;;22.30;99.90;;;;;;5076166;28;20024;-84
2023/08/16 09:58:40;;;;;;;4.65;1.85;;;22.30;99.90;;;;;;5093495;28;20029;-85
2023/08/16 10:01:07;;;;;;;3.25;1.70;;;22.40;99.90;;;;;;5076403;28;20078;-85
2023/08/16 10:03:33;;;;;;;4.30;2.00;;;22.40;99.80;;;;;;5060061;28;20074;-85
2023/08/16 10:06:00;;;;;;;3.72;2.25;;;22.40;99.60;;;;;;5077973;28;20425;-85
2023/08/16 10:08:27;;;;;;;5.18;2.25;;;22.40;99.60;;;;;;5109766;28;20033;-85
2023/08/16 10:10:57;;;;;;;3.90;1.90;;;22.40;99.40;;;;;;5065673;28;20072;-85
2023/08/16 10:13:23;;;;;;;5.10;2.25;;;22.40;99.40;;;;;;5095707;28;20077;-85
2023/08/16 10:15:52;;;;;;;3.60;1.70;;;22.50;99.30;;;;;;5097189;28;20024;-85
2023/08/16 10:18:21;;;;;;;3.90;2.05;;;22.50;99.60;;;;;;5097261;28;20024;-85
2023/08/16 10:20:49;;;;;;;4.15;1.90;;;22.60;99.10;;;;;;5096182;28;20020;-85
2023/08/16 10:23:18;;;;;;;4.38;2.10;;;22.60;99.20;;;;;;5096407;28;20017;-85
2023/08/16 10:25:48;;;;;;;3.95;1.73;;;22.60;99.20;;;;;;5080636;28;20023;-85
2023/08/16 10:28:16;;;;;;;4.63;2.10;;;22.70;99.40;;;;;;5086242;28;20020;-86
2023/08/16 10:30:49;;;;;;;4.00;2.17;;;22.70;99.20;;;;;;5096021;28;20016;-85
2023/08/16 10:33:25;;;;;;;3.55;2.05;;;22.70;99.10;;;;;;5096145;28;20028;-85
2023/08/16 10:35:52;;;;;;;6.47;2.53;;;22.80;99.00;;;;;;5095967;28;20024;-85
2023/08/16 10:38:20;;;;;;;2.00;1.55;;;22.80;99.00;;;;;;5095590;28;20024;-85
2023/08/16 10:40:58;;;;;;;2.70;1.73;;;22.80;98.90;;;;;;5095660;28;20027;-85
2023/08/16 10:43:36;;;;;;;2.60;1.90;;;22.90;98.60;;;;;;5095555;28;20016;-85
2023/08/16 10:46:02;;;;;;;3.67;2.05;;;22.90;98.40;;;;;;5077579;28;20020;-84
2023/08/16 10:48:34;;;;;;;5.60;1.80;;;22.80;98.50;;;;;;5058735;28;20028;-85
2023/08/16 10:51:05;;;;;;;2.53;1.30;;;22.90;98.60;;;;;;5074969;28;20024;-84
2023/08/16 10:53:32;;;;;;;2.80;1.40;;;22.90;98.70;;;;;;5068550;28;20056;-86
2023/08/16 10:55:58;;;;;;;2.15;1.73;;;23.00;98.60;;;;;;5069951;28;20082;-85
2023/08/16 10:58:25;;;;;;;2.78;1.42;;;23.00;98.40;;;;;;5059017;28;20036;-85
2023/08/16 11:01:04;;;;;;;3.50;1.35;;;23.10;98.50;;;;;;5075935;28;20432;-85
2023/08/16 11:03:31;;;;;;;1.83;1.30;;;23.20;98.40;;;;;;5075193;28;20078;-85
2023/08/16 11:05:59;;;;;;;3.85;1.60;;;23.20;98.50;;;;;;5065199;28;20021;-84
2023/08/16 11:08:29;;;;;;;3.72;1.75;;;23.30;98.50;;;;;;5086391;28;20021;-84
2023/08/16 11:10:55;;;;;;;3.47;1.92;;;23.40;98.40;;;;;;5088586;28;20056;-85
2023/08/16 11:13:21;;;;;;;3.38;1.52;;;23.50;98.20;;;;;;5120780;28;20021;-85
2023/08/16 11:15:47;;;;;;;5.05;2.00;;;23.50;98.00;;;;;;5122180;28;20016;-86
2023/08/16 11:18:13;;;;;;;1.95;1.35;;;23.50;97.60;;;;;;5077392;28;20106;-86
2023/08/16 11:20:41;;;;;;;4.07;1.63;;;23.60;97.70;;;;;;5108779;28;20029;-86
2023/08/16 11:23:06;;;;;;;2.55;1.45;;;23.60;97.60;;;;;;5098425;28;20103;-87
2023/08/16 11:25:35;;;;;;;4.72;1.83;;;23.70;97.40;;;;;;5103749;28;20516;-86
2023/08/16 11:28:04;;;;;;;3.50;1.80;;;23.70;97.10;;;;;;5072534;28;20051;-86
2023/08/16 11:30:34;;;;;;;4.38;1.73;;;23.70;97.00;;;;;;5082489;28;20032;-87
2023/08/16 11:33:00;;;;;;;2.47;1.45;;;23.70;97.00;;;;;;5100133;28;20025;-85
2023/08/16 11:35:26;;;;;;;2.78;1.40;;;23.80;97.00;;;;;;5067889;28;20028;-85
2023/08/16 11:37:52;;;;;;;2.25;1.42;;;23.80;96.60;;;;;;5057988;28;20470;-85
2023/08/16 11:40:24;;;;;;;4.10;1.33;;;23.80;96.50;;;;;;5060821;28;20023;-86
2023/08/16 11:42:53;;;;;;;3.47;1.45;;;23.80;96.40;;;;;;5088437;28;20369;-86
2023/08/16 11:45:25;;;;;;;3.35;1.35;;;23.80;96.40;;;;;;5069866;28;20028;-84
2023/08/16 11:47:54;;;;;;;2.17;1.20;;;23.80;96.40;;;;;;5083336;28;20076;-85
2023/08/16 11:50:22;;;;;;;2.30;1.38;;;23.80;96.50;;;;;;5077700;28;20096;-85
2023/08/16 11:53:02;;;;;;;5.90;1.83;;;23.80;96.50;;;;;;5086693;28;20113;-85
2023/08/16 11:55:31;;;;;;;3.42;1.40;;;23.80;96.10;;;;;;5073145;28;20079;-85
2023/08/16 11:58:04;;;;;;;2.28;1.50;;;23.90;96.70;;;;;;5065266;28;20025;-85
2023/08/16 12:00:30;;;;;;;2.90;1.48;;;24.00;96.60;;;;;;5054335;28;20028;-85
2023/08/16 12:02:56;;;;;;;3.95;1.52;;;24.10;96.60;;;;;;5070629;28;20078;-86
2023/08/16 12:05:23;;;;;;;3.28;1.73;;;24.10;96.60;;;;;;5085561;28;20021;-85
2023/08/16 12:07:53;;;;;;;3.67;1.77;;;24.20;96.60;;;;;;5068485;28;20031;-84
2023/08/16 12:10:26;;;;;;;3.85;1.70;;;24.20;96.40;;;;;;5056733;28;20100;-85
2023/08/16 12:12:54;;;;;;;3.28;1.92;;;24.20;96.60;;;;;;5073670;28;20030;-85
2023/08/16 12:15:22;;;;;;;2.67;1.70;;;24.20;96.40;;;;;;5072324;28;20029;-85
2023/08/16 12:17:49;;;;;;;3.83;1.67;;;24.20;96.40;;;;;;5052902;28;20086;-85
2023/08/16 12:20:14;;;;;;;2.95;1.50;;;24.20;96.50;;;;;;5084175;28;20016;-85
2023/08/16 12:22:40;;;;;;;3.67;1.77;;;24.20;96.50;;;;;;5066865;28;20047;-85
2023/08/16 12:25:06;;;;;;;3.55;1.60;;;24.20;96.50;;;;;;5088299;28;20051;-85
2023/08/16 12:27:31;;;;;;;4.03;1.52;;;24.20;96.10;;;;;;5056779;28;20032;-86
2023/08/16 12:29:57;;;;;;;2.85;1.35;;;24.40;96.10;;;;;;5055089;28;20451;-86
2023/08/16 12:32:23;;;;;;;2.85;1.40;;;24.40;96.10;;;;;;5073350;28;20031;-85
2023/08/16 12:34:48;;;;;;;1.95;1.00;;;24.40;95.40;;;;;;5070827;28;20042;-85
2023/08/16 12:37:14;;;;;;;2.35;1.45;;;24.40;95.40;;;;;;5074306;28;20036;-85
2023/08/16 12:39:39;;;;;;;1.98;1.25;;;24.50;95.10;;;;;;5056467;28;20394;-86
2023/08/16 12:42:05;;;;;;;2.10;1.17;;;24.40;94.70;;;;;;5071651;28;20028;-85
2023/08/16 12:44:31;;;;;;;2.03;1.20;;;24.50;94.80;;;;;;5073109;28;20074;-85
2023/08/16 12:46:56;;;;;;;1.30;1.00;;;24.50;94.90;;;;;;5089802;28;20472;-86